Time;durP1;ratioP1;P1;durP2;ratioP2;P2;SDS_P1;SDS_P2;PMS_P1;PMS_P2;Temp;Humidity;BMP_temperature;BMP_pressure;BME280_temperature;BME280_humidity;BME280_pressure;Samples;Min_cycle;Max_cycle;Signal;HPM_P1;HPM_P2
2024/01/02 00:00:56;;;;;;;8.47;3.60;;;;;;;;;;5102425;28;20510;-66
2024/01/02 00:03:24;;;;;;;7.53;2.93;;;;;;;;;;5102599;28;20493;-66
2024/01/02 00:05:50;;;;;;;6.00;3.10;;;;;;;;;;5102381;28;20438;-65
2024/01/02 00:08:17;;;;;;;8.90;2.93;;;;;;;;;;5089130;28;20482;-65
2024/01/02 00:10:43;;;;;;;8.87;3.03;;;;;;;;;;5105277;28;20490;-65
2024/01/02 00:13:09;;;;;;;8.87;2.93;;;;;;;;;;5100946;28;20439;-65
2024/01/02 00:15:36;;;;;;;12.80;3.73;;;;;;;;;;5090796;28;20475;-65
2024/01/02 00:18:03;;;;;;;10.50;2.83;;;;;;;;;;5102871;28;20902;-65
2024/01/02 00:20:30;;;;;;;8.23;3.10;;;;;;;;;;5096467;28;20467;-66
2024/01/02 00:22:57;;;;;;;4.93;2.70;;;;;;;;;;5097083;28;20631;-66
2024/01/02 00:25:23;;;;;;;10.03;2.93;;;;;;;;;;5090813;28;20439;-66
2024/01/02 00:27:49;;;;;;;23.07;4.10;;;;;;;;;;5098410;28;20535;-66
2024/01/02 00:30:16;;;;;;;11.83;4.33;;;;;;;;;;5095496;28;20511;-66
2024/01/02 00:32:43;;;;;;;9.23;3.40;;;;;;;;;;5109831;28;20457;-66
2024/01/02 00:35:09;;;;;;;10.03;4.80;;;;;;;;;;5096188;28;20491;-66
2024/01/02 00:37:37;;;;;;;13.20;3.27;;;;;;;;;;5095389;28;20538;-66
2024/01/02 00:40:03;;;;;;;9.63;2.53;;;;;;;;;;5100239;28;20518;-66
2024/01/02 00:42:30;;;;;;;7.80;2.83;;;;;;;;;;5097699;28;20487;-66
2024/01/02 00:44:59;;;;;;;8.60;3.27;;;;;;;;;;5097633;28;21107;-65
2024/01/02 00:47:26;;;;;;;5.77;2.80;;;;;;;;;;5095760;28;20462;-65
2024/01/02 00:49:52;;;;;;;15.60;3.47;;;;;;;;;;5097120;28;20508;-65
2024/01/02 00:52:19;;;;;;;8.80;3.47;;;;;;;;;;5095760;28;20519;-65
2024/01/02 00:54:46;;;;;;;7.40;2.97;;;;;;;;;;5094357;28;20462;-65
2024/01/02 00:57:13;;;;;;;12.70;3.30;;;;;;;;;;5097128;28;20472;-65
2024/01/02 00:59:39;;;;;;;16.43;3.73;;;;;;;;;;5106532;28;20509;-65
2024/01/02 01:02:06;;;;;;;11.37;2.83;;;;;;;;;;5099495;28;20462;-65
2024/01/02 01:04:32;;;;;;;11.17;2.63;;;;;;;;;;5097270;28;20449;-65
2024/01/02 01:06:59;;;;;;;7.53;2.83;;;;;;;;;;5100767;28;20522;-65
2024/01/02 01:09:25;;;;;;;11.57;3.37;;;;;;;;;;5100849;28;20450;-65
2024/01/02 01:11:53;;;;;;;12.07;3.10;;;;;;;;;;5105302;28;20561;-65
2024/01/02 01:14:19;;;;;;;7.90;2.93;;;;;;;;;;5102134;28;20438;-65
2024/01/02 01:16:46;;;;;;;16.10;2.63;;;;;;;;;;5098187;28;20994;-66
2024/01/02 01:19:12;;;;;;;10.80;2.83;;;;;;;;;;5098858;28;20442;-65
2024/01/02 01:21:38;;;;;;;7.40;2.50;;;;;;;;;;5097556;28;20546;-66
2024/01/02 01:24:05;;;;;;;6.37;2.47;;;;;;;;;;5093471;28;20512;-66
2024/01/02 01:26:31;;;;;;;4.63;2.37;;;;;;;;;;5098273;28;20562;-66
2024/01/02 01:28:59;;;;;;;7.67;2.60;;;;;;;;;;5091196;28;20468;-65
2024/01/02 01:31:25;;;;;;;9.20;3.53;;;;;;;;;;5097887;28;20541;-65
2024/01/02 01:33:52;;;;;;;10.77;3.03;;;;;;;;;;5098409;28;21053;-65
2024/01/02 01:36:18;;;;;;;5.90;2.37;;;;;;;;;;5095474;28;20550;-65
2024/01/02 01:38:47;;;;;;;14.67;3.30;;;;;;;;;;5093627;28;20455;-65
2024/01/02 01:41:13;;;;;;;7.77;2.47;;;;;;;;;;5092670;28;20477;-65
2024/01/02 01:43:39;;;;;;;8.43;2.30;;;;;;;;;;5096044;28;20474;-65
2024/01/02 01:46:07;;;;;;;15.80;3.57;;;;;;;;;;5101086;28;20470;-65
2024/01/02 01:48:34;;;;;;;3.33;2.50;;;;;;;;;;5091388;28;20475;-65
2024/01/02 01:51:00;;;;;;;7.13;2.07;;;;;;;;;;5093406;28;20475;-65
2024/01/02 01:53:27;;;;;;;7.10;2.03;;;;;;;;;;5097595;28;20504;-65
2024/01/02 01:55:55;;;;;;;6.67;2.60;;;;;;;;;;5105461;28;20504;-65
2024/01/02 01:58:21;;;;;;;12.90;3.50;;;;;;;;;;5096393;28;21111;-66
2024/01/02 02:00:48;;;;;;;9.93;2.37;;;;;;;;;;5085043;28;20487;-65
2024/01/02 02:03:17;;;;;;;9.73;2.50;;;;;;;;;;5095050;28;20544;-66
2024/01/02 02:05:43;;;;;;;4.83;2.27;;;;;;;;;;5094377;28;20467;-65
2024/01/02 02:08:10;;;;;;;13.53;2.13;;;;;;;;;;5097020;28;20522;-65
2024/01/02 02:10:36;;;;;;;3.37;2.40;;;;;;;;;;5097971;28;20514;-65
2024/01/02 02:13:03;;;;;;;3.73;1.63;;;;;;;;;;5094217;28;20482;-65
2024/01/02 02:15:29;;;;;;;5.67;1.80;;;;;;;;;;5095248;28;20470;-65
2024/01/02 02:17:55;;;;;;;7.93;1.97;;;;;;;;;;5095919;28;20475;-65
2024/01/02 02:20:23;;;;;;;6.73;1.67;;;;;;;;;;5102956;28;20482;-65
2024/01/02 02:22:51;;;;;;;4.80;1.40;;;;;;;;;;5096447;28;20483;-65
2024/01/02 02:25:18;;;;;;;1.80;1.70;;;;;;;;;;5098895;28;20594;-65
2024/01/02 02:27:45;;;;;;;5.03;1.97;;;;;;;;;;5093328;28;20455;-66
2024/01/02 02:30:12;;;;;;;5.30;2.63;;;;;;;;;;5100379;28;21025;-66
2024/01/02 02:32:38;;;;;;;4.50;1.50;;;;;;;;;;5085111;28;20515;-66
2024/01/02 02:35:05;;;;;;;7.50;1.77;;;;;;;;;;5095041;28;20510;-67
2024/01/02 02:37:32;;;;;;;7.07;2.03;;;;;;;;;;5100347;28;20481;-66
2024/01/02 02:39:59;;;;;;;3.20;2.07;;;;;;;;;;5096858;28;20440;-66
2024/01/02 02:42:26;;;;;;;4.67;1.80;;;;;;;;;;5110861;28;20572;-66
2024/01/02 02:44:52;;;;;;;11.57;2.07;;;;;;;;;;5103919;28;20470;-66
2024/01/02 02:47:19;;;;;;;7.73;2.07;;;;;;;;;;5088404;28;21004;-66
2024/01/02 02:49:45;;;;;;;7.73;2.00;;;;;;;;;;5095307;28;20481;-66
2024/01/02 02:52:12;;;;;;;2.30;1.13;;;;;;;;;;5105793;28;20486;-66
2024/01/02 02:54:38;;;;;;;8.57;2.10;;;;;;;;;;5097621;28;20479;-65
2024/01/02 02:57:06;;;;;;;3.50;1.50;;;;;;;;;;5096364;28;20589;-66
2024/01/02 02:59:32;;;;;;;5.77;1.50;;;;;;;;;;5099522;28;20466;-65
2024/01/02 03:01:58;;;;;;;3.20;1.90;;;;;;;;;;5097216;28;20534;-66
2024/01/02 03:04:25;;;;;;;2.90;1.47;;;;;;;;;;5109402;28;20540;-65
2024/01/02 03:06:51;;;;;;;8.33;2.13;;;;;;;;;;5101409;28;20456;-65
2024/01/02 03:09:17;;;;;;;9.53;2.27;;;;;;;;;;5106604;28;20466;-66
2024/01/02 03:11:44;;;;;;;5.00;1.90;;;;;;;;;;5092793;28;20455;-66
2024/01/02 03:14:11;;;;;;;5.63;2.23;;;;;;;;;;5108763;28;20215;-66
2024/01/02 03:16:38;;;;;;;6.03;1.50;;;;;;;;;;5097419;28;20503;-65
2024/01/02 03:19:04;;;;;;;5.10;1.60;;;;;;;;;;5094135;28;20530;-65
2024/01/02 03:21:30;;;;;;;6.90;1.40;;;;;;;;;;5092143;28;20944;-66
2024/01/02 03:23:58;;;;;;;3.70;1.70;;;;;;;;;;5095501;28;20707;-66
2024/01/02 03:26:24;;;;;;;1.40;1.30;;;;;;;;;;5093901;28;20458;-66
2024/01/02 03:28:50;;;;;;;2.50;1.40;;;;;;;;;;5100929;28;20471;-66
2024/01/02 03:31:18;;;;;;;2.63;1.50;;;;;;;;;;5108918;28;20479;-65
2024/01/02 03:33:44;;;;;;;2.50;1.57;;;;;;;;;;5101184;28;20549;-66
2024/01/02 03:36:14;;;;;;;2.47;1.50;;;;;;;;;;5106177;28;20974;-65
2024/01/02 03:38:40;;;;;;;3.40;1.70;;;;;;;;;;5099075;28;20450;-66
2024/01/02 03:41:07;;;;;;;2.80;1.20;;;;;;;;;;5093110;28;20539;-65
2024/01/02 03:43:34;;;;;;;4.60;2.10;;;;;;;;;;5098247;28;20493;-66
2024/01/02 03:46:00;;;;;;;5.73;1.40;;;;;;;;;;5102633;28;20436;-66
2024/01/02 03:48:28;;;;;;;3.77;1.40;;;;;;;;;;5097705;28;20542;-66
2024/01/02 03:50:54;;;;;;;3.70;1.53;;;;;;;;;;5094052;28;20453;-64
2024/01/02 03:53:20;;;;;;;2.03;1.17;;;;;;;;;;5098525;28;20679;-65
2024/01/02 03:55:47;;;;;;;3.70;1.60;;;;;;;;;;5094756;28;20508;-65
2024/01/02 03:58:13;;;;;;;2.40;1.33;;;;;;;;;;5096744;28;20511;-66
2024/01/02 04:00:40;;;;;;;2.97;1.73;;;;;;;;;;5098551;28;20486;-66
2024/01/02 04:03:06;;;;;;;5.13;2.77;;;;;;;;;;5102130;28;21379;-65
2024/01/02 04:05:34;;;;;;;4.73;1.93;;;;;;;;;;5094191;28;21533;-65
2024/01/02 04:08:01;;;;;;;5.50;2.03;;;;;;;;;;5094756;28;20470;-65
2024/01/02 04:10:27;;;;;;;2.97;1.60;;;;;;;;;;5097912;28;20859;-65
2024/01/02 04:12:53;;;;;;;6.67;1.60;;;;;;;;;;5099216;28;20462;-65
2024/01/02 04:15:20;;;;;;;5.77;2.20;;;;;;;;;;5098000;28;20503;-64
2024/01/02 04:17:46;;;;;;;4.43;1.80;;;;;;;;;;5100667;28;20562;-65
2024/01/02 04:20:13;;;;;;;3.40;1.63;;;;;;;;;;5096142;28;21263;-65
2024/01/02 04:22:40;;;;;;;5.83;1.93;;;;;;;;;;5095611;28;20568;-65
2024/01/02 04:25:07;;;;;;;4.07;1.60;;;;;;;;;;5096092;28;20479;-65
2024/01/02 04:27:33;;;;;;;3.63;2.03;;;;;;;;;;5091331;28;20515;-65
2024/01/02 04:30:00;;;;;;;2.30;2.10;;;;;;;;;;5091047;28;20439;-65
2024/01/02 04:32:26;;;;;;;3.53;1.97;;;;;;;;;;5099056;28;20514;-65
2024/01/02 04:34:53;;;;;;;4.27;1.77;;;;;;;;;;5098242;28;20507;-65
2024/01/02 04:37:19;;;;;;;2.53;2.00;;;;;;;;;;5098657;28;20515;-64
2024/01/02 04:39:47;;;;;;;3.00;1.80;;;;;;;;;;5096887;28;20446;-64
2024/01/02 04:42:13;;;;;;;5.70;2.13;;;;;;;;;;5103197;28;20514;-64
2024/01/02 04:44:40;;;;;;;3.00;1.67;;;;;;;;;;5091661;28;20506;-64
2024/01/02 04:47:06;;;;;;;6.03;2.33;;;;;;;;;;5099955;28;20503;-65
2024/01/02 04:49:32;;;;;;;3.30;1.60;;;;;;;;;;5097713;28;20453;-66
2024/01/02 04:51:59;;;;;;;2.07;1.87;;;;;;;;;;5086994;28;20498;-66
2024/01/02 04:54:25;;;;;;;4.20;2.00;;;;;;;;;;5097793;28;20463;-66
2024/01/02 04:56:53;;;;;;;4.60;1.77;;;;;;;;;;5096563;28;20450;-67
2024/01/02 04:59:19;;;;;;;4.10;1.80;;;;;;;;;;5095074;28;20456;-66
2024/01/02 05:01:46;;;;;;;2.77;1.57;;;;;;;;;;5099443;28;20513;-66
2024/01/02 05:04:12;;;;;;;5.70;1.57;;;;;;;;;;5107060;28;20506;-67
2024/01/02 05:06:38;;;;;;;3.00;1.87;;;;;;;;;;5097767;28;20526;-67
2024/01/02 05:09:05;;;;;;;3.67;2.00;;;;;;;;;;5097196;28;20517;-66
2024/01/02 05:11:35;;;;;;;2.70;2.00;;;;;;;;;;5099587;28;21168;-65
2024/01/02 05:14:03;;;;;;;2.90;1.60;;;;;;;;;;5088560;28;21148;-66
2024/01/02 05:16:30;;;;;;;3.17;1.30;;;;;;;;;;5097997;28;20541;-65
2024/01/02 05:18:56;;;;;;;2.80;1.10;;;;;;;;;;5095094;28;20485;-66
2024/01/02 05:21:22;;;;;;;2.80;1.47;;;;;;;;;;5099402;28;20486;-66
2024/01/02 05:23:49;;;;;;;2.30;1.43;;;;;;;;;;5095057;28;20537;-65
2024/01/02 05:26:15;;;;;;;2.73;1.53;;;;;;;;;;5096448;28;20479;-67
2024/01/02 05:28:41;;;;;;;1.50;1.20;;;;;;;;;;5097694;28;20513;-65
2024/01/02 05:31:09;;;;;;;2.00;1.37;;;;;;;;;;5095904;28;20487;-66
2024/01/02 05:33:36;;;;;;;1.33;1.10;;;;;;;;;;5095192;28;20518;-65
2024/01/02 05:36:02;;;;;;;3.13;1.37;;;;;;;;;;5094299;28;21025;-65
2024/01/02 05:38:28;;;;;;;1.73;1.00;;;;;;;;;;5092597;28;20876;-65
2024/01/02 05:40:55;;;;;;;1.53;1.00;;;;;;;;;;5099476;28;20454;-65
2024/01/02 05:43:21;;;;;;;2.40;1.10;;;;;;;;;;5096738;28;20461;-65
2024/01/02 05:45:47;;;;;;;3.43;1.23;;;;;;;;;;5099012;28;20502;-65
2024/01/02 05:48:15;;;;;;;3.30;1.20;;;;;;;;;;5097276;28;20558;-65
2024/01/02 05:50:42;;;;;;;2.90;1.60;;;;;;;;;;5094590;28;20530;-65
2024/01/02 05:53:10;;;;;;;0.70;0.70;;;;;;;;;;5093414;28;20566;-65
2024/01/02 05:55:36;;;;;;;0.90;0.90;;;;;;;;;;5096392;28;20436;-65
2024/01/02 05:58:03;;;;;;;0.87;0.83;;;;;;;;;;5102214;28;20514;-65
2024/01/02 06:00:29;;;;;;;1.97;0.90;;;;;;;;;;5093248;28;20537;-65
2024/01/02 06:02:55;;;;;;;0.80;0.70;;;;;;;;;;5096901;28;20471;-65
2024/01/02 06:05:23;;;;;;;1.23;0.80;;;;;;;;;;5098989;28;20487;-66
2024/01/02 06:07:50;;;;;;;2.30;0.83;;;;;;;;;;5093650;28;20506;-66
2024/01/02 06:10:16;;;;;;;0.70;0.70;;;;;;;;;;5093269;28;20475;-66
2024/01/02 06:12:42;;;;;;;1.80;1.37;;;;;;;;;;5095506;28;20526;-66
2024/01/02 06:15:09;;;;;;;0.87;0.70;;;;;;;;;;5100448;28;20526;-67
2024/01/02 06:17:37;;;;;;;0.93;0.70;;;;;;;;;;5102043;28;20472;-68
2024/01/02 06:20:04;;;;;;;0.93;0.83;;;;;;;;;;5100859;28;20504;-67
2024/01/02 06:22:32;;;;;;;0.90;0.70;;;;;;;;;;5096736;28;20451;-66
2024/01/02 06:24:58;;;;;;;1.70;0.80;;;;;;;;;;5099704;28;20473;-66
2024/01/02 06:27:24;;;;;;;0.80;0.60;;;;;;;;;;5105607;28;20542;-66
2024/01/02 06:29:51;;;;;;;0.60;0.60;;;;;;;;;;5103465;28;21281;-66
2024/01/02 06:32:17;;;;;;;0.77;0.77;;;;;;;;;;5099532;28;20486;-67
2024/01/02 06:34:44;;;;;;;0.83;0.60;;;;;;;;;;5096962;28;20557;-67
2024/01/02 06:37:10;;;;;;;1.17;0.70;;;;;;;;;;5094603;28;20542;-68
2024/01/02 06:39:38;;;;;;;0.80;0.80;;;;;;;;;;5104658;28;20513;-68
2024/01/02 06:42:05;;;;;;;0.77;0.63;;;;;;;;;;5104333;28;20509;-68
2024/01/02 06:44:31;;;;;;;0.77;0.67;;;;;;;;;;5102441;28;20479;-68
2024/01/02 06:46:58;;;;;;;0.90;0.80;;;;;;;;;;5101012;28;20443;-68
2024/01/02 06:49:24;;;;;;;0.80;0.70;;;;;;;;;;5097640;28;20535;-68
2024/01/02 06:51:51;;;;;;;1.03;0.60;;;;;;;;;;5094776;28;20529;-70
2024/01/02 06:54:17;;;;;;;0.80;0.70;;;;;;;;;;5100331;28;20432;-70
2024/01/02 06:56:45;;;;;;;0.80;0.80;;;;;;;;;;5099682;28;20478;-69
2024/01/02 06:59:11;;;;;;;0.60;0.60;;;;;;;;;;5093184;28;20440;-70
2024/01/02 07:01:37;;;;;;;0.60;0.60;;;;;;;;;;5106476;28;20486;-70
2024/01/02 07:04:04;;;;;;;0.70;0.70;;;;;;;;;;5093332;28;20573;-69
2024/01/02 07:06:31;;;;;;;0.80;0.70;;;;;;;;;;5096655;28;20485;-68
2024/01/02 07:08:57;;;;;;;0.60;0.60;;;;;;;;;;5095643;28;20470;-69
2024/01/02 07:11:24;;;;;;;0.67;0.67;;;;;;;;;;5095616;28;20478;-69
2024/01/02 07:13:52;;;;;;;1.03;0.73;;;;;;;;;;5099922;28;21057;-69
2024/01/02 07:16:18;;;;;;;0.93;0.73;;;;;;;;;;5094649;28;20467;-69
2024/01/02 07:18:44;;;;;;;0.80;0.80;;;;;;;;;;5099693;28;20549;-69
2024/01/02 07:21:11;;;;;;;0.60;0.60;;;;;;;;;;5094102;28;20481;-69
2024/01/02 07:23:37;;;;;;;0.70;0.70;;;;;;;;;;5090119;28;20511;-69
2024/01/02 07:26:03;;;;;;;0.87;0.73;;;;;;;;;;5088320;28;20509;-69
2024/01/02 07:28:30;;;;;;;0.80;0.80;;;;;;;;;;5089197;28;20516;-69
2024/01/02 07:30:58;;;;;;;0.80;0.80;;;;;;;;;;5091286;28;20551;-69
2024/01/02 07:33:24;;;;;;;1.03;0.93;;;;;;;;;;5089305;28;20483;-69
2024/01/02 07:35:51;;;;;;;1.20;1.10;;;;;;;;;;5097263;28;20547;-69
2024/01/02 07:38:17;;;;;;;1.30;1.20;;;;;;;;;;5095129;28;20515;-69
2024/01/02 07:40:44;;;;;;;1.33;1.23;;;;;;;;;;5096195;28;20515;-68
2024/01/02 07:43:10;;;;;;;0.70;0.70;;;;;;;;;;5092136;28;20963;-69
2024/01/02 07:45:36;;;;;;;0.70;0.70;;;;;;;;;;5095283;28;21181;-69
2024/01/02 07:48:05;;;;;;;1.20;1.10;;;;;;;;;;5092662;28;20532;-69
2024/01/02 07:50:31;;;;;;;0.70;0.70;;;;;;;;;;5095037;28;20451;-69
2024/01/02 07:52:58;;;;;;;0.90;0.80;;;;;;;;;;5093535;28;20518;-70
2024/01/02 07:55:24;;;;;;;0.80;0.80;;;;;;;;;;5096140;28;20501;-69
2024/01/02 07:57:50;;;;;;;0.80;0.80;;;;;;;;;;5096706;28;20514;-70
2024/01/02 08:00:18;;;;;;;0.70;0.70;;;;;;;;;;5094836;28;20475;-70
2024/01/02 08:02:44;;;;;;;0.70;0.70;;;;;;;;;;5092716;28;20443;-69
2024/01/02 08:05:12;;;;;;;0.77;0.77;;;;;;;;;;5088966;28;20566;-70
2024/01/02 08:07:38;;;;;;;1.47;1.10;;;;;;;;;;5097495;28;20476;-70
2024/01/02 08:10:06;;;;;;;1.30;0.80;;;;;;;;;;5095956;28;20511;-70
2024/01/02 08:12:32;;;;;;;0.90;0.90;;;;;;;;;;5095986;28;20456;-70
2024/01/02 08:14:58;;;;;;;0.87;0.83;;;;;;;;;;5088337;28;20507;-69
2024/01/02 08:17:25;;;;;;;0.80;0.80;;;;;;;;;;5087163;28;20482;-71
2024/01/02 08:19:52;;;;;;;1.10;1.00;;;;;;;;;;5086532;28;20455;-70
2024/01/02 08:22:20;;;;;;;1.43;1.20;;;;;;;;;;5090322;28;20539;-70
2024/01/02 08:24:46;;;;;;;1.37;1.27;;;;;;;;;;5099235;28;20513;-70
2024/01/02 08:27:13;;;;;;;1.50;1.40;;;;;;;;;;5100174;28;20451;-70
2024/01/02 08:29:39;;;;;;;1.60;1.50;;;;;;;;;;5095468;28;20522;-70
2024/01/02 08:32:06;;;;;;;1.53;1.43;;;;;;;;;;5100088;28;20744;-70
2024/01/02 08:34:32;;;;;;;1.70;1.60;;;;;;;;;;5105306;28;20494;-71
2024/01/02 08:36:59;;;;;;;2.00;1.63;;;;;;;;;;5101682;28;20522;-70
2024/01/02 08:39:26;;;;;;;2.00;1.80;;;;;;;;;;5095659;28;20462;-70
2024/01/02 08:41:53;;;;;;;2.40;2.20;;;;;;;;;;5098229;28;21336;-70
2024/01/02 08:44:19;;;;;;;2.50;2.30;;;;;;;;;;5089356;28;20467;-70
2024/01/02 08:46:45;;;;;;;2.93;2.60;;;;;;;;;;5090869;28;20494;-70
2024/01/02 08:49:13;;;;;;;3.10;2.53;;;;;;;;;;5088943;28;20515;-70
2024/01/02 08:51:40;;;;;;;4.10;2.80;;;;;;;;;;5097440;28;20451;-70
2024/01/02 08:54:06;;;;;;;3.63;3.33;;;;;;;;;;5097772;28;20528;-71
2024/01/02 08:56:34;;;;;;;3.10;2.83;;;;;;;;;;5091251;28;20588;-71
2024/01/02 08:59:01;;;;;;;3.53;3.23;;;;;;;;;;5095464;28;20514;-71
2024/01/02 09:01:28;;;;;;;3.80;3.40;;;;;;;;;;5098224;28;20497;-71
2024/01/02 09:03:54;;;;;;;3.00;2.80;;;;;;;;;;5095016;28;20458;-71
2024/01/02 09:06:21;;;;;;;3.33;3.03;;;;;;;;;;5100299;28;21386;-71
2024/01/02 09:08:47;;;;;;;3.63;3.23;;;;;;;;;;5096302;28;20455;-71
2024/01/02 09:11:15;;;;;;;3.53;3.20;;;;;;;;;;5092803;28;20520;-70
2024/01/02 09:13:43;;;;;;;5.37;3.40;;;;;;;;;;5098872;28;21062;-71
2024/01/02 09:16:09;;;;;;;4.80;4.30;;;;;;;;;;5097662;28;21018;-70
2024/01/02 09:18:36;;;;;;;5.60;4.57;;;;;;;;;;5107938;28;20489;-71
2024/01/02 09:21:02;;;;;;;3.67;3.37;;;;;;;;;;5100712;28;20494;-70
2024/01/02 09:23:28;;;;;;;4.80;4.30;;;;;;;;;;5105362;28;20517;-70
2024/01/02 09:25:58;;;;;;;4.27;3.80;;;;;;;;;;5087724;28;20504;-70
2024/01/02 09:28:24;;;;;;;4.33;3.70;;;;;;;;;;5093609;28;21253;-70
2024/01/02 09:30:52;;;;;;;4.97;4.03;;;;;;;;;;5108308;28;20838;-70
2024/01/02 09:33:20;;;;;;;4.23;3.83;;;;;;;;;;5108526;28;20537;-70
2024/01/02 09:35:47;;;;;;;5.20;4.70;;;;;;;;;;5104021;28;20489;-71
2024/01/02 09:38:15;;;;;;;5.10;4.60;;;;;;;;;;5098026;28;20463;-71
2024/01/02 09:40:51;;;;;;;6.60;5.70;;;;;;;;;;5100107;28;20463;-70
2024/01/02 09:43:22;;;;;;;6.43;5.83;;;;;;;;;;5093946;28;20447;-70
2024/01/02 09:45:55;;;;;;;7.00;5.67;;;;;;;;;;5096102;28;20512;-70
2024/01/02 09:48:35;;;;;;;8.80;6.70;;;;;;;;;;5095756;28;20458;-70
2024/01/02 09:51:05;;;;;;;8.83;6.07;;;;;;;;;;5099878;28;20532;-70
2024/01/02 09:53:41;;;;;;;8.43;7.07;;;;;;;;;;5092434;28;20538;-69
2024/01/02 09:56:10;;;;;;;7.50;6.70;;;;;;;;;;5092156;28;20451;-70
2024/01/02 09:58:43;;;;;;;9.73;7.70;;;;;;;;;;5092391;28;20452;-73
2024/01/02 10:01:14;;;;;;;9.50;7.33;;;;;;;;;;5094489;28;20466;-73
2024/01/02 10:03:56;;;;;;;7.77;6.90;;;;;;;;;;5083208;28;21115;-75
2024/01/02 10:06:32;;;;;;;8.50;7.60;;;;;;;;;;5085650;28;20501;-75
2024/01/02 10:09:04;;;;;;;9.40;7.60;;;;;;;;;;5099032;28;20447;-76
2024/01/02 10:11:35;;;;;;;9.80;8.43;;;;;;;;;;5090583;28;20463;-75
2024/01/02 10:14:02;;;;;;;10.33;8.70;;;;;;;;;;5098890;28;20473;-74
2024/01/02 10:16:33;;;;;;;14.57;9.50;;;;;;;;;;5106958;28;20436;-73
2024/01/02 10:19:08;;;;;;;12.07;9.50;;;;;;;;;;5085490;28;20479;-74
2024/01/02 10:21:38;;;;;;;11.37;9.33;;;;;;;;;;5085405;28;20756;-73
2024/01/02 10:24:11;;;;;;;13.17;9.80;;;;;;;;;;5097852;28;20470;-74
2024/01/02 10:26:39;;;;;;;16.43;10.63;;;;;;;;;;5097121;28;21013;-75
2024/01/02 10:29:09;;;;;;;12.70;10.70;;;;;;;;;;5100434;28;20859;-75
2024/01/02 10:31:38;;;;;;;11.60;9.07;;;;;;;;;;5097377;28;20555;-75
2024/01/02 10:34:11;;;;;;;16.40;11.00;;;;;;;;;;5100628;28;20477;-75
2024/01/02 10:36:40;;;;;;;12.50;10.20;;;;;;;;;;5090770;28;20837;-73
2024/01/02 10:39:09;;;;;;;13.87;10.87;;;;;;;;;;5102195;28;20460;-71
2024/01/02 10:41:41;;;;;;;13.37;10.53;;;;;;;;;;5093339;28;20538;-73
2024/01/02 10:44:13;;;;;;;12.40;10.50;;;;;;;;;;5095926;28;20479;-73
2024/01/02 10:46:46;;;;;;;13.23;10.77;;;;;;;;;;5098240;28;20483;-74
2024/01/02 10:49:21;;;;;;;12.93;10.93;;;;;;;;;;5097693;28;20521;-73
2024/01/02 10:51:51;;;;;;;12.60;10.23;;;;;;;;;;5088363;28;20482;-72
2024/01/02 10:54:20;;;;;;;19.00;11.57;;;;;;;;;;5098683;28;20984;-73
2024/01/02 10:56:52;;;;;;;16.97;12.43;;;;;;;;;;5096376;28;20516;-73
2024/01/02 10:59:27;;;;;;;14.83;11.23;;;;;;;;;;5100280;28;20542;-77
2024/01/02 11:01:57;;;;;;;16.83;12.77;;;;;;;;;;5087613;28;20452;-71
2024/01/02 11:04:32;;;;;;;13.70;11.67;;;;;;;;;;5099258;28;21099;-73
2024/01/02 11:07:01;;;;;;;13.83;10.97;;;;;;;;;;5093036;28;20511;-73
2024/01/02 11:09:33;;;;;;;12.97;11.57;;;;;;;;;;5088151;28;20835;-71
2024/01/02 11:12:00;;;;;;;15.63;10.63;;;;;;;;;;5101885;28;20451;-72
2024/01/02 11:14:28;;;;;;;16.37;10.40;;;;;;;;;;5099871;28;20482;-72
2024/01/02 11:16:56;;;;;;;11.60;10.40;;;;;;;;;;5103691;28;20465;-73
2024/01/02 11:19:28;;;;;;;13.63;11.40;;;;;;;;;;5107559;28;20455;-74
2024/01/02 11:22:02;;;;;;;14.93;11.13;;;;;;;;;;5103401;28;20471;-73
2024/01/02 11:24:30;;;;;;;14.67;11.20;;;;;;;;;;5098341;28;20516;-74
2024/01/02 11:27:03;;;;;;;16.60;11.83;;;;;;;;;;5105611;28;20509;-74
2024/01/02 11:29:31;;;;;;;18.53;12.33;;;;;;;;;;5100406;28;20447;-74
2024/01/02 11:32:01;;;;;;;20.30;13.53;;;;;;;;;;5100512;28;20538;-74
2024/01/02 11:34:35;;;;;;;18.97;13.47;;;;;;;;;;5100315;28;20480;-75
2024/01/02 11:37:09;;;;;;;18.13;13.73;;;;;;;;;;5091638;28;20497;-74
2024/01/02 11:39:37;;;;;;;16.13;12.00;;;;;;;;;;5093374;28;20451;-72
2024/01/02 11:42:07;;;;;;;19.30;13.70;;;;;;;;;;5101291;28;20561;-73
2024/01/02 11:44:40;;;;;;;15.47;12.60;;;;;;;;;;5093606;28;20475;-73
2024/01/02 11:47:11;;;;;;;16.77;13.40;;;;;;;;;;5095406;28;20550;-74
2024/01/02 11:49:42;;;;;;;18.77;13.60;;;;;;;;;;5098637;28;20454;-73
2024/01/02 11:52:11;;;;;;;13.20;11.83;;;;;;;;;;5106598;28;20553;-74
2024/01/02 11:54:43;;;;;;;15.13;11.90;;;;;;;;;;5100461;28;20479;-76
2024/01/02 11:57:15;;;;;;;14.40;11.40;;;;;;;;;;5103765;28;20478;-76
2024/01/02 11:59:45;;;;;;;13.27;10.43;;;;;;;;;;5102339;28;20486;-76
2024/01/02 12:02:19;;;;;;;12.40;10.87;;;;;;;;;;5097019;28;21019;-76
2024/01/02 12:04:54;;;;;;;11.40;10.13;;;;;;;;;;5098324;28;20867;-75
2024/01/02 12:07:26;;;;;;;15.33;11.00;;;;;;;;;;5105525;28;20972;-76
2024/01/02 12:09:52;;;;;;;12.80;10.00;;;;;;;;;;5108129;28;20474;-78
2024/01/02 12:12:26;;;;;;;12.90;10.20;;;;;;;;;;5101565;28;20439;-74
2024/01/02 12:14:58;;;;;;;11.30;10.10;;;;;;;;;;5095205;28;20506;-74
2024/01/02 12:17:29;;;;;;;11.60;8.87;;;;;;;;;;5098691;28;20645;-73
2024/01/02 12:19:59;;;;;;;10.10;9.07;;;;;;;;;;5110426;28;20474;-73
2024/01/02 12:22:27;;;;;;;10.03;8.43;;;;;;;;;;5098000;28;20537;-73
2024/01/02 12:24:53;;;;;;;9.53;8.20;;;;;;;;;;5101010;28;20474;-75
2024/01/02 12:27:23;;;;;;;9.80;7.63;;;;;;;;;;5100892;28;20922;-73
2024/01/02 12:29:51;;;;;;;7.50;6.47;;;;;;;;;;5107869;28;20450;-74
2024/01/02 12:32:22;;;;;;;9.47;5.90;;;;;;;;;;5106353;28;20462;-74
2024/01/02 12:34:53;;;;;;;7.33;6.00;;;;;;;;;;5104118;28;20491;-74
2024/01/02 12:37:23;;;;;;;7.30;4.60;;;;;;;;;;5104969;28;20947;-75
2024/01/02 12:39:52;;;;;;;7.93;5.57;;;;;;;;;;5108263;28;20511;-74
2024/01/02 12:42:21;;;;;;;5.20;4.70;;;;;;;;;;5103100;28;20907;-76
2024/01/02 12:44:50;;;;;;;6.53;5.67;;;;;;;;;;5097395;28;20458;-75
2024/01/02 12:47:19;;;;;;;6.00;4.23;;;;;;;;;;5101903;28;20525;-76
2024/01/02 12:49:48;;;;;;;4.93;4.23;;;;;;;;;;5100299;28;20447;-75
2024/01/02 12:52:18;;;;;;;3.73;3.03;;;;;;;;;;5091976;28;20509;-75
2024/01/02 12:54:47;;;;;;;3.20;2.73;;;;;;;;;;5105995;28;20469;-76
2024/01/02 12:57:16;;;;;;;3.60;2.87;;;;;;;;;;5099053;28;20471;-78
2024/01/02 12:59:43;;;;;;;6.30;3.60;;;;;;;;;;5100292;28;20522;-75
2024/01/02 13:02:10;;;;;;;4.60;3.83;;;;;;;;;;5099054;28;20457;-76
2024/01/02 13:04:37;;;;;;;5.00;4.17;;;;;;;;;;5093213;28;20513;-77
2024/01/02 13:07:04;;;;;;;7.00;4.83;;;;;;;;;;5092908;28;20500;-77
2024/01/02 13:09:31;;;;;;;12.10;5.83;;;;;;;;;;5095047;28;20522;-77
2024/01/02 13:11:59;;;;;;;6.53;5.50;;;;;;;;;;5089392;28;20473;-77
2024/01/02 13:14:27;;;;;;;10.00;6.23;;;;;;;;;;5097978;28;20538;-76
2024/01/02 13:16:54;;;;;;;11.00;7.67;;;;;;;;;;5107647;28;20529;-78
2024/01/02 13:19:21;;;;;;;11.07;7.97;;;;;;;;;;5089549;28;20483;-79
2024/01/02 13:21:49;;;;;;;7.70;6.80;;;;;;;;;;5099122;28;20443;-74
2024/01/02 13:24:16;;;;;;;6.73;5.77;;;;;;;;;;5098091;28;20463;-73
2024/01/02 13:26:43;;;;;;;7.13;5.60;;;;;;;;;;5097124;28;20538;-73
2024/01/02 13:29:10;;;;;;;7.17;5.97;;;;;;;;;;5086774;28;20536;-63
2024/01/02 13:31:38;;;;;;;6.27;5.10;;;;;;;;;;5086671;28;20458;-72
2024/01/02 13:34:04;;;;;;;5.83;5.23;;;;;;;;;;5092938;28;20474;-73
2024/01/02 13:36:31;;;;;;;4.50;4.10;;;;;;;;;;5104302;28;20487;-73
2024/01/02 13:38:57;;;;;;;7.27;5.93;;;;;;;;;;5087005;28;20530;-73
2024/01/02 13:41:25;;;;;;;4.83;4.33;;;;;;;;;;5093370;28;20482;-73
2024/01/02 13:43:51;;;;;;;6.30;5.23;;;;;;;;;;5092523;28;20457;-73
2024/01/02 13:46:21;;;;;;;4.93;4.10;;;;;;;;;;5088185;28;20594;-73
2024/01/02 13:48:53;;;;;;;5.40;4.50;;;;;;;;;;5086980;28;20448;-73
2024/01/02 13:51:20;;;;;;;4.17;3.77;;;;;;;;;;5090543;28;20462;-73
2024/01/02 13:53:58;;;;;;;5.53;3.70;;;;;;;;;;5089380;28;20995;-73
2024/01/02 13:56:24;;;;;;;3.60;3.30;;;;;;;;;;5096087;28;20435;-73
2024/01/02 13:58:59;;;;;;;2.93;2.63;;;;;;;;;;5100511;28;20558;-73
2024/01/02 14:01:29;;;;;;;4.30;3.30;;;;;;;;;;5089240;28;20546;-72
2024/01/02 14:03:57;;;;;;;3.00;2.80;;;;;;;;;;5088128;28;20455;-73
2024/01/02 14:06:24;;;;;;;3.83;3.30;;;;;;;;;;5089502;28;20570;-72
2024/01/02 14:09:08;;;;;;;4.00;2.70;;;;;;;;;;5091550;28;20566;-73
2024/01/02 14:11:34;;;;;;;3.73;2.40;;;;;;;;;;5099068;28;20442;-73
2024/01/02 14:14:06;;;;;;;3.07;2.77;;;;;;;;;;5105652;28;20577;-73
2024/01/02 14:16:32;;;;;;;2.50;2.30;;;;;;;;;;5097442;28;20474;-73
2024/01/02 14:19:00;;;;;;;1.97;1.83;;;;;;;;;;5095059;28;20511;-73
2024/01/02 14:21:27;;;;;;;3.07;2.10;;;;;;;;;;5092189;28;20471;-72
2024/01/02 14:23:58;;;;;;;2.70;2.00;;;;;;;;;;5090537;28;20493;-73
2024/01/02 14:26:28;;;;;;;2.73;2.33;;;;;;;;;;5096777;28;20538;-73
2024/01/02 14:28:59;;;;;;;2.33;2.13;;;;;;;;;;5097124;28;21408;-76
2024/01/02 14:31:31;;;;;;;1.97;1.70;;;;;;;;;;5086035;28;20520;-74
2024/01/02 14:34:05;;;;;;;1.50;1.40;;;;;;;;;;5089983;28;20889;-76
2024/01/02 14:36:43;;;;;;;1.73;1.63;;;;;;;;;;5099163;28;20486;-76
2024/01/02 14:39:17;;;;;;;1.30;1.20;;;;;;;;;;5109129;28;20485;-76
2024/01/02 14:41:49;;;;;;;1.60;1.50;;;;;;;;;;5095694;28;20451;-76